Terminal Aerodrome Forecast
Issued by NWS Jackson, MS

Home | Current Version | Previous Version | Text Only | Print | Product List | Glossary On
Versions: 1 2 3 4 5 6 7 8 9 10 11 12 13 14 15
000
FTUS44 KJAN 282134 AAA
TAFGWO
TAF AMD
KGWO 282134Z 2822/2918 19016G22KT P6SM SKC
     FM290100 19006KT P6SM SCT050 BKN250
     FM291000 VRB03KT 6SM BR SKC
     FM291400 29006KT P6SM SCT250=

USA.gov is the U.S. government's official web portal to all federal, state and local government web resources and services.